Aérodrome :
LOGIN :

S'inscrire | Disclaimer

   EN    FR    IT 

 










Légende :    VFR   VFR Marginal   IFR   IFR Intensif   IFR Très Intensif
Visi : 
Plafond : 
>= 8 km
>= 3000ft
5 à 8 km
1000 à 3000 ft
1500m à 5 km
500 à 1000 ft
800 à 1500m
200 à 500 ft
< 800m
< 200 ft
Symboles :   Orages  Brouillard  Fortes neiges  Fortes précipitations  Vent > 20 kt
SIGMETs :   Divers  Orages  Givrage  Turbulence  Onde Orograph.  Cendres Volcan.







- Altitude de l'aérodrome : 584 ft
- Voir les cartes d'approche


LFPV - Villacoublay Vélizy

DERNIER METAR :
  • 170600Z AUTO 19007KT 150V230 CAVOK 17/14 Q1017 NOSIG

METARs EXPIRÉS :
  • 170530Z AUTO 19005KT 140V220 CAVOK 16/13 Q1017 NOSIG
  • 170500Z AUTO 20006KT CAVOK 16/13 Q1017 NOSIG
  • 170430Z AUTO 19006KT CAVOK 16/13 Q1017 NOSIG
  • 170400Z AUTO 20005KT 160V220 CAVOK 17/13 Q1017 NOSIG
  • 170330Z AUTO 20005KT 180V240 CAVOK 17/12 Q1017 NOSIG
  • 170300Z AUTO 18005KT CAVOK 17/12 Q1017 NOSIG

TAF TAF LFPV
Valide du 17 à 03h jusqu'au 18 à 03h UTC


170200Z 1703/1803 VRB02KT CAVOK
TEMPO 1708/1715 -RA BKN012
TEMPO 1716/1719 -SHRA BKN020TCU
TEMPO 1801/1803 BKN005
Pas de NOTAMs connus pour ce terrain.



MET'MAP, la Météo Aéronautique d'un coup d'oeil ! - Copyright ORBIFLY Décembre 2007 - Disclaimer

ORBIFLY MET'MAP TEAM :

Programmation & Développement : Alexandra Zaïnal
Conception & Développement : Baudouin d'Aumeries
Co-Programmation & Développement : Marc-Olivier Méhu
Soutien technique & logistique : Manuel Goepfert

Contact : metmap@orbifly.com




SOURCES & CREDITS :

   NOAA